sensor_id;sensor_type;location;lat;lon;timestamp;P1;durP1;ratioP1;P2;durP2;ratioP2
23682;SDS011;24897;53.514;10.482;2023-03-31T00:02:08;49.57;;;34.63;;
23682;SDS011;24897;53.514;10.482;2023-03-31T00:04:58;54.80;;;36.17;;
23682;SDS011;24897;53.514;10.482;2023-03-31T00:07:43;51.47;;;34.70;;
23682;SDS011;24897;53.514;10.482;2023-03-31T00:10:29;52.20;;;35.33;;
23682;SDS011;24897;53.514;10.482;2023-03-31T00:13:17;55.17;;;35.77;;
23682;SDS011;24897;53.514;10.482;2023-03-31T00:16:06;46.80;;;33.07;;
23682;SDS011;24897;53.514;10.482;2023-03-31T00:18:51;57.17;;;36.70;;
23682;SDS011;24897;53.514;10.482;2023-03-31T00:21:36;51.20;;;35.03;;
23682;SDS011;24897;53.514;10.482;2023-03-31T00:24:20;49.37;;;32.73;;
23682;SDS011;24897;53.514;10.482;2023-03-31T00:27:04;51.03;;;33.30;;
23682;SDS011;24897;53.514;10.482;2023-03-31T00:29:48;57.37;;;34.57;;
23682;SDS011;24897;53.514;10.482;2023-03-31T00:32:33;49.23;;;34.73;;
23682;SDS011;24897;53.514;10.482;2023-03-31T00:35:17;47.33;;;34.07;;
23682;SDS011;24897;53.514;10.482;2023-03-31T00:38:01;52.57;;;33.90;;
23682;SDS011;24897;53.514;10.482;2023-03-31T00:40:46;43.07;;;33.47;;
23682;SDS011;24897;53.514;10.482;2023-03-31T00:46:17;49.60;;;32.93;;
23682;SDS011;24897;53.514;10.482;2023-03-31T00:49:07;53.50;;;34.07;;
23682;SDS011;24897;53.514;10.482;2023-03-31T00:52:05;53.13;;;34.13;;
23682;SDS011;24897;53.514;10.482;2023-03-31T00:55:05;48.57;;;32.80;;
23682;SDS011;24897;53.514;10.482;2023-03-31T00:57:55;55.43;;;35.13;;
23682;SDS011;24897;53.514;10.482;2023-03-31T01:00:41;51.43;;;33.70;;
23682;SDS011;24897;53.514;10.482;2023-03-31T01:03:25;48.73;;;32.87;;
23682;SDS011;24897;53.514;10.482;2023-03-31T01:06:10;50.53;;;33.13;;
23682;SDS011;24897;53.514;10.482;2023-03-31T01:08:55;46.60;;;32.50;;
23682;SDS011;24897;53.514;10.482;2023-03-31T01:11:40;48.37;;;31.90;;
23682;SDS011;24897;53.514;10.482;2023-03-31T01:14:26;43.90;;;31.73;;
23682;SDS011;24897;53.514;10.482;2023-03-31T01:17:11;50.83;;;31.90;;
23682;SDS011;24897;53.514;10.482;2023-03-31T01:44:44;50.63;;;33.47;;
23682;SDS011;24897;53.514;10.482;2023-03-31T01:47:32;44.83;;;30.97;;
23682;SDS011;24897;53.514;10.482;2023-03-31T01:50:28;49.93;;;33.27;;
23682;SDS011;24897;53.514;10.482;2023-03-31T01:56:24;50.67;;;31.30;;
23682;SDS011;24897;53.514;10.482;2023-03-31T01:59:18;45.43;;;33.00;;
23682;SDS011;24897;53.514;10.482;2023-03-31T02:02:21;47.30;;;32.10;;
23682;SDS011;24897;53.514;10.482;2023-03-31T02:05:14;50.17;;;32.27;;
23682;SDS011;24897;53.514;10.482;2023-03-31T02:10:51;49.93;;;33.93;;
23682;SDS011;24897;53.514;10.482;2023-03-31T02:13:38;47.30;;;32.90;;
23682;SDS011;24897;53.514;10.482;2023-03-31T02:16:25;48.87;;;33.87;;
23682;SDS011;24897;53.514;10.482;2023-03-31T02:19:10;48.03;;;33.23;;
23682;SDS011;24897;53.514;10.482;2023-03-31T02:21:56;49.03;;;35.67;;
23682;SDS011;24897;53.514;10.482;2023-03-31T02:24:42;52.07;;;36.23;;
23682;SDS011;24897;53.514;10.482;2023-03-31T02:27:35;51.03;;;37.40;;
23682;SDS011;24897;53.514;10.482;2023-03-31T02:30:23;48.83;;;33.40;;
23682;SDS011;24897;53.514;10.482;2023-03-31T02:33:14;50.73;;;35.43;;
23682;SDS011;24897;53.514;10.482;2023-03-31T02:35:59;50.37;;;37.17;;
23682;SDS011;24897;53.514;10.482;2023-03-31T02:39:18;44.63;;;34.20;;
23682;SDS011;24897;53.514;10.482;2023-03-31T02:41:58;48.77;;;34.17;;
23682;SDS011;24897;53.514;10.482;2023-03-31T02:44:45;50.37;;;33.70;;
23682;SDS011;24897;53.514;10.482;2023-03-31T02:47:29;50.13;;;33.50;;
23682;SDS011;24897;53.514;10.482;2023-03-31T02:50:13;47.20;;;32.93;;
23682;SDS011;24897;53.514;10.482;2023-03-31T03:09:17;48.40;;;33.17;;
23682;SDS011;24897;53.514;10.482;2023-03-31T03:15:23;51.77;;;34.33;;
23682;SDS011;24897;53.514;10.482;2023-03-31T03:18:13;54.37;;;36.47;;
23682;SDS011;24897;53.514;10.482;2023-03-31T03:20:57;51.73;;;34.27;;
23682;SDS011;24897;53.514;10.482;2023-03-31T03:23:42;51.27;;;35.37;;
23682;SDS011;24897;53.514;10.482;2023-03-31T03:26:27;48.77;;;34.80;;
23682;SDS011;24897;53.514;10.482;2023-03-31T03:29:11;52.40;;;33.97;;
23682;SDS011;24897;53.514;10.482;2023-03-31T03:31:57;50.03;;;33.37;;
23682;SDS011;24897;53.514;10.482;2023-03-31T03:34:41;52.13;;;35.20;;
23682;SDS011;24897;53.514;10.482;2023-03-31T03:37:25;52.30;;;34.70;;
23682;SDS011;24897;53.514;10.482;2023-03-31T03:40:09;52.47;;;35.57;;
23682;SDS011;24897;53.514;10.482;2023-03-31T03:42:53;49.27;;;34.87;;
23682;SDS011;24897;53.514;10.482;2023-03-31T03:45:46;48.67;;;35.43;;
23682;SDS011;24897;53.514;10.482;2023-03-31T03:48:31;48.87;;;35.10;;
23682;SDS011;24897;53.514;10.482;2023-03-31T03:51:15;53.83;;;36.37;;
23682;SDS011;24897;53.514;10.482;2023-03-31T03:54:02;55.10;;;37.17;;
23682;SDS011;24897;53.514;10.482;2023-03-31T03:56:46;56.67;;;36.70;;
23682;SDS011;24897;53.514;10.482;2023-03-31T03:59:30;50.50;;;35.47;;
23682;SDS011;24897;53.514;10.482;2023-03-31T04:02:14;56.30;;;37.13;;
23682;SDS011;24897;53.514;10.482;2023-03-31T04:04:58;52.53;;;35.30;;
23682;SDS011;24897;53.514;10.482;2023-03-31T04:07:42;52.33;;;35.20;;
23682;SDS011;24897;53.514;10.482;2023-03-31T04:10:26;59.63;;;36.57;;
23682;SDS011;24897;53.514;10.482;2023-03-31T04:13:10;50.00;;;35.27;;
23682;SDS011;24897;53.514;10.482;2023-03-31T04:15:55;54.47;;;36.20;;
23682;SDS011;24897;53.514;10.482;2023-03-31T04:18:39;50.07;;;35.77;;
23682;SDS011;24897;53.514;10.482;2023-03-31T04:21:31;54.37;;;35.73;;
23682;SDS011;24897;53.514;10.482;2023-03-31T04:24:18;48.50;;;34.53;;
23682;SDS011;24897;53.514;10.482;2023-03-31T04:27:04;50.87;;;36.57;;
23682;SDS011;24897;53.514;10.482;2023-03-31T04:29:50;52.70;;;37.20;;
23682;SDS011;24897;53.514;10.482;2023-03-31T04:32:37;60.13;;;40.83;;
23682;SDS011;24897;53.514;10.482;2023-03-31T04:35:21;61.93;;;40.87;;
23682;SDS011;24897;53.514;10.482;2023-03-31T04:38:07;61.23;;;39.37;;
23682;SDS011;24897;53.514;10.482;2023-03-31T04:40:52;61.83;;;39.10;;
23682;SDS011;24897;53.514;10.482;2023-03-31T04:43:36;60.43;;;38.47;;
23682;SDS011;24897;53.514;10.482;2023-03-31T04:46:20;59.70;;;40.17;;
23682;SDS011;24897;53.514;10.482;2023-03-31T04:49:04;63.80;;;40.73;;
23682;SDS011;24897;53.514;10.482;2023-03-31T04:51:49;58.93;;;39.43;;
23682;SDS011;24897;53.514;10.482;2023-03-31T04:54:33;64.57;;;39.73;;
23682;SDS011;24897;53.514;10.482;2023-03-31T04:57:17;57.33;;;39.07;;
23682;SDS011;24897;53.514;10.482;2023-03-31T05:00:02;57.53;;;39.03;;
23682;SDS011;24897;53.514;10.482;2023-03-31T05:02:50;53.80;;;39.20;;
23682;SDS011;24897;53.514;10.482;2023-03-31T05:05:34;62.40;;;40.83;;
23682;SDS011;24897;53.514;10.482;2023-03-31T05:08:19;57.07;;;39.47;;
23682;SDS011;24897;53.514;10.482;2023-03-31T05:11:04;59.87;;;40.07;;
23682;SDS011;24897;53.514;10.482;2023-03-31T05:13:49;58.10;;;39.57;;
23682;SDS011;24897;53.514;10.482;2023-03-31T05:16:33;53.43;;;39.27;;
23682;SDS011;24897;53.514;10.482;2023-03-31T05:19:18;57.60;;;39.03;;
23682;SDS011;24897;53.514;10.482;2023-03-31T05:22:05;58.17;;;41.27;;
23682;SDS011;24897;53.514;10.482;2023-03-31T05:24:49;55.47;;;38.17;;
23682;SDS011;24897;53.514;10.482;2023-03-31T05:27:33;55.07;;;39.10;;
23682;SDS011;24897;53.514;10.482;2023-03-31T05:30:18;53.27;;;38.80;;
23682;SDS011;24897;53.514;10.482;2023-03-31T05:33:03;52.47;;;38.10;;
23682;SDS011;24897;53.514;10.482;2023-03-31T05:35:47;54.93;;;39.07;;
23682;SDS011;24897;53.514;10.482;2023-03-31T05:38:31;53.33;;;38.47;;
23682;SDS011;24897;53.514;10.482;2023-03-31T05:41:17;55.00;;;37.73;;
23682;SDS011;24897;53.514;10.482;2023-03-31T05:44:01;54.90;;;37.27;;
23682;SDS011;24897;53.514;10.482;2023-03-31T05:46:45;54.87;;;38.33;;
23682;SDS011;24897;53.514;10.482;2023-03-31T05:49:29;54.07;;;37.50;;
23682;SDS011;24897;53.514;10.482;2023-03-31T05:52:14;55.90;;;38.47;;
23682;SDS011;24897;53.514;10.482;2023-03-31T05:54:58;54.33;;;39.30;;
23682;SDS011;24897;53.514;10.482;2023-03-31T05:57:42;54.80;;;38.37;;
23682;SDS011;24897;53.514;10.482;2023-03-31T06:00:26;54.97;;;37.87;;
23682;SDS011;24897;53.514;10.482;2023-03-31T06:03:10;50.47;;;35.80;;
23682;SDS011;24897;53.514;10.482;2023-03-31T06:05:55;54.40;;;36.37;;
23682;SDS011;24897;53.514;10.482;2023-03-31T06:08:39;55.13;;;37.97;;
23682;SDS011;24897;53.514;10.482;2023-03-31T06:11:24;53.10;;;35.83;;
23682;SDS011;24897;53.514;10.482;2023-03-31T06:14:08;48.03;;;35.43;;
23682;SDS011;24897;53.514;10.482;2023-03-31T06:16:52;51.40;;;34.93;;
23682;SDS011;24897;53.514;10.482;2023-03-31T06:19:37;49.63;;;35.63;;
23682;SDS011;24897;53.514;10.482;2023-03-31T06:22:22;48.73;;;35.47;;
23682;SDS011;24897;53.514;10.482;2023-03-31T06:25:07;50.03;;;34.97;;
23682;SDS011;24897;53.514;10.482;2023-03-31T06:27:51;48.27;;;34.70;;
23682;SDS011;24897;53.514;10.482;2023-03-31T06:30:36;50.00;;;34.77;;
23682;SDS011;24897;53.514;10.482;2023-03-31T06:33:20;45.97;;;34.10;;
23682;SDS011;24897;53.514;10.482;2023-03-31T06:36:04;48.67;;;33.90;;
23682;SDS011;24897;53.514;10.482;2023-03-31T06:38:50;45.33;;;33.23;;
23682;SDS011;24897;53.514;10.482;2023-03-31T06:41:34;48.37;;;34.33;;
23682;SDS011;24897;53.514;10.482;2023-03-31T06:44:19;53.47;;;34.73;;
23682;SDS011;24897;53.514;10.482;2023-03-31T06:47:05;49.27;;;35.10;;
23682;SDS011;24897;53.514;10.482;2023-03-31T06:49:49;45.10;;;33.67;;
23682;SDS011;24897;53.514;10.482;2023-03-31T06:52:34;43.73;;;32.67;;
23682;SDS011;24897;53.514;10.482;2023-03-31T06:55:19;50.37;;;33.50;;
23682;SDS011;24897;53.514;10.482;2023-03-31T06:58:03;48.87;;;33.23;;
23682;SDS011;24897;53.514;10.482;2023-03-31T07:00:48;42.13;;;31.50;;
23682;SDS011;24897;53.514;10.482;2023-03-31T07:03:33;45.33;;;32.97;;
23682;SDS011;24897;53.514;10.482;2023-03-31T07:06:18;44.40;;;33.43;;
23682;SDS011;24897;53.514;10.482;2023-03-31T07:09:02;43.40;;;33.10;;
23682;SDS011;24897;53.514;10.482;2023-03-31T07:11:47;42.10;;;31.57;;
23682;SDS011;24897;53.514;10.482;2023-03-31T07:14:31;42.93;;;31.70;;
23682;SDS011;24897;53.514;10.482;2023-03-31T07:17:15;43.90;;;32.20;;
23682;SDS011;24897;53.514;10.482;2023-03-31T07:20:00;43.00;;;30.97;;
23682;SDS011;24897;53.514;10.482;2023-03-31T07:22:44;43.90;;;32.17;;
23682;SDS011;24897;53.514;10.482;2023-03-31T07:25:29;41.77;;;32.40;;
23682;SDS011;24897;53.514;10.482;2023-03-31T07:28:14;41.53;;;31.57;;
23682;SDS011;24897;53.514;10.482;2023-03-31T07:30:59;37.73;;;29.97;;
23682;SDS011;24897;53.514;10.482;2023-03-31T07:33:43;38.23;;;30.53;;
23682;SDS011;24897;53.514;10.482;2023-03-31T07:36:27;37.80;;;30.00;;
23682;SDS011;24897;53.514;10.482;2023-03-31T07:39:11;40.83;;;32.20;;
23682;SDS011;24897;53.514;10.482;2023-03-31T07:41:55;38.00;;;30.23;;
23682;SDS011;24897;53.514;10.482;2023-03-31T07:44:39;40.30;;;29.90;;
23682;SDS011;24897;53.514;10.482;2023-03-31T07:47:24;37.67;;;30.83;;
23682;SDS011;24897;53.514;10.482;2023-03-31T07:50:08;35.17;;;30.70;;
23682;SDS011;24897;53.514;10.482;2023-03-31T07:52:53;39.53;;;30.80;;
23682;SDS011;24897;53.514;10.482;2023-03-31T07:55:38;37.80;;;30.77;;
23682;SDS011;24897;53.514;10.482;2023-03-31T07:58:22;38.17;;;31.00;;
23682;SDS011;24897;53.514;10.482;2023-03-31T08:01:07;38.27;;;30.73;;
23682;SDS011;24897;53.514;10.482;2023-03-31T08:03:51;36.17;;;29.23;;
23682;SDS011;24897;53.514;10.482;2023-03-31T08:06:37;36.27;;;29.47;;
23682;SDS011;24897;53.514;10.482;2023-03-31T08:09:22;36.43;;;28.93;;
23682;SDS011;24897;53.514;10.482;2023-03-31T08:12:06;34.97;;;29.00;;
23682;SDS011;24897;53.514;10.482;2023-03-31T08:14:50;34.10;;;28.53;;
23682;SDS011;24897;53.514;10.482;2023-03-31T08:17:35;35.20;;;28.17;;
23682;SDS011;24897;53.514;10.482;2023-03-31T08:20:19;35.53;;;28.40;;
23682;SDS011;24897;53.514;10.482;2023-03-31T08:23:03;37.80;;;28.73;;
23682;SDS011;24897;53.514;10.482;2023-03-31T08:25:51;36.00;;;28.30;;
23682;SDS011;24897;53.514;10.482;2023-03-31T08:28:35;34.33;;;27.63;;
23682;SDS011;24897;53.514;10.482;2023-03-31T08:31:20;37.93;;;28.73;;
23682;SDS011;24897;53.514;10.482;2023-03-31T08:34:09;36.57;;;29.67;;
23682;SDS011;24897;53.514;10.482;2023-03-31T08:36:53;42.80;;;30.73;;
23682;SDS011;24897;53.514;10.482;2023-03-31T08:39:38;39.40;;;29.53;;
23682;SDS011;24897;53.514;10.482;2023-03-31T08:42:35;36.07;;;28.77;;
23682;SDS011;24897;53.514;10.482;2023-03-31T08:45:36;41.83;;;29.87;;
23682;SDS011;24897;53.514;10.482;2023-03-31T08:48:28;37.20;;;29.43;;
23682;SDS011;24897;53.514;10.482;2023-03-31T08:51:18;39.53;;;29.50;;
23682;SDS011;24897;53.514;10.482;2023-03-31T08:54:19;39.83;;;29.70;;
23682;SDS011;24897;53.514;10.482;2023-03-31T08:57:16;36.07;;;28.90;;
23682;SDS011;24897;53.514;10.482;2023-03-31T09:00:04;41.23;;;29.97;;
23682;SDS011;24897;53.514;10.482;2023-03-31T09:02:58;39.83;;;31.73;;
23682;SDS011;24897;53.514;10.482;2023-03-31T09:08:38;41.80;;;32.27;;
23682;SDS011;24897;53.514;10.482;2023-03-31T09:14:28;42.30;;;30.67;;
23682;SDS011;24897;53.514;10.482;2023-03-31T09:17:29;44.53;;;30.40;;
23682;SDS011;24897;53.514;10.482;2023-03-31T09:20:18;41.43;;;32.53;;
23682;SDS011;24897;53.514;10.482;2023-03-31T09:23:31;42.53;;;30.13;;
23682;SDS011;24897;53.514;10.482;2023-03-31T09:26:26;48.13;;;34.03;;
23682;SDS011;24897;53.514;10.482;2023-03-31T09:29:13;42.33;;;31.17;;
23682;SDS011;24897;53.514;10.482;2023-03-31T09:32:16;46.80;;;33.87;;
23682;SDS011;24897;53.514;10.482;2023-03-31T09:38:16;45.90;;;34.27;;
23682;SDS011;24897;53.514;10.482;2023-03-31T09:41:00;46.80;;;34.67;;
23682;SDS011;24897;53.514;10.482;2023-03-31T09:43:46;45.30;;;33.07;;
23682;SDS011;24897;53.514;10.482;2023-03-31T09:46:33;46.63;;;33.10;;
23682;SDS011;24897;53.514;10.482;2023-03-31T09:49:20;47.07;;;34.80;;
23682;SDS011;24897;53.514;10.482;2023-03-31T09:54:54;48.93;;;36.87;;
23682;SDS011;24897;53.514;10.482;2023-03-31T09:57:41;49.93;;;36.93;;
23682;SDS011;24897;53.514;10.482;2023-03-31T10:00:26;48.03;;;34.73;;
23682;SDS011;24897;53.514;10.482;2023-03-31T10:03:11;46.77;;;34.10;;
23682;SDS011;24897;53.514;10.482;2023-03-31T10:05:56;46.47;;;33.47;;
23682;SDS011;24897;53.514;10.482;2023-03-31T10:08:48;47.20;;;33.80;;
23682;SDS011;24897;53.514;10.482;2023-03-31T10:12:18;41.33;;;29.90;;
23682;SDS011;24897;53.514;10.482;2023-03-31T10:15:18;47.37;;;32.97;;
23682;SDS011;24897;53.514;10.482;2023-03-31T10:18:05;47.53;;;39.40;;
23682;SDS011;24897;53.514;10.482;2023-03-31T10:20:50;45.43;;;35.60;;
23682;SDS011;24897;53.514;10.482;2023-03-31T10:23:51;46.13;;;36.67;;
23682;SDS011;24897;53.514;10.482;2023-03-31T10:26:38;45.33;;;34.40;;
23682;SDS011;24897;53.514;10.482;2023-03-31T10:29:28;47.20;;;35.27;;
23682;SDS011;24897;53.514;10.482;2023-03-31T10:35:14;43.67;;;37.20;;
23682;SDS011;24897;53.514;10.482;2023-03-31T10:38:09;42.50;;;33.80;;
23682;SDS011;24897;53.514;10.482;2023-03-31T10:41:00;38.67;;;32.07;;
23682;SDS011;24897;53.514;10.482;2023-03-31T10:49:50;48.17;;;33.90;;
23682;SDS011;24897;53.514;10.482;2023-03-31T10:52:44;46.70;;;32.97;;
23682;SDS011;24897;53.514;10.482;2023-03-31T11:01:42;40.10;;;28.63;;
23682;SDS011;24897;53.514;10.482;2023-03-31T11:05:10;36.90;;;28.30;;
23682;SDS011;24897;53.514;10.482;2023-03-31T11:08:59;37.67;;;28.20;;
23682;SDS011;24897;53.514;10.482;2023-03-31T11:20:12;41.40;;;31.70;;
23682;SDS011;24897;53.514;10.482;2023-03-31T11:23:19;38.27;;;30.53;;
23682;SDS011;24897;53.514;10.482;2023-03-31T11:26:18;39.97;;;31.60;;
23682;SDS011;24897;53.514;10.482;2023-03-31T11:29:13;40.47;;;30.77;;
23682;SDS011;24897;53.514;10.482;2023-03-31T11:44:08;50.93;;;39.40;;
23682;SDS011;24897;53.514;10.482;2023-03-31T11:46:56;48.63;;;37.83;;
23682;SDS011;24897;53.514;10.482;2023-03-31T11:49:45;48.20;;;39.43;;
23682;SDS011;24897;53.514;10.482;2023-03-31T11:52:37;54.00;;;42.33;;
23682;SDS011;24897;53.514;10.482;2023-03-31T11:55:29;46.93;;;39.83;;
23682;SDS011;24897;53.514;10.482;2023-03-31T11:58:16;51.87;;;42.23;;
23682;SDS011;24897;53.514;10.482;2023-03-31T12:07:28;57.50;;;43.03;;
23682;SDS011;24897;53.514;10.482;2023-03-31T12:16:21;87.87;;;69.73;;
23682;SDS011;24897;53.514;10.482;2023-03-31T12:19:16;78.40;;;63.63;;
23682;SDS011;24897;53.514;10.482;2023-03-31T12:24:52;71.10;;;53.97;;
23682;SDS011;24897;53.514;10.482;2023-03-31T12:27:38;68.47;;;55.17;;
23682;SDS011;24897;53.514;10.482;2023-03-31T12:42:49;71.40;;;61.50;;
23682;SDS011;24897;53.514;10.482;2023-03-31T12:45:40;67.33;;;58.07;;
23682;SDS011;24897;53.514;10.482;2023-03-31T12:57:45;64.43;;;54.00;;
23682;SDS011;24897;53.514;10.482;2023-03-31T13:00:29;63.83;;;53.07;;
23682;SDS011;24897;53.514;10.482;2023-03-31T13:11:57;55.93;;;41.23;;
23682;SDS011;24897;53.514;10.482;2023-03-31T13:14:51;52.53;;;39.43;;
23682;SDS011;24897;53.514;10.482;2023-03-31T13:17:37;51.73;;;38.57;;
23682;SDS011;24897;53.514;10.482;2023-03-31T13:23:44;48.80;;;39.17;;
23682;SDS011;24897;53.514;10.482;2023-03-31T13:34:55;48.70;;;36.40;;
23682;SDS011;24897;53.514;10.482;2023-03-31T13:44:00;48.90;;;39.17;;
23682;SDS011;24897;53.514;10.482;2023-03-31T13:59:57;42.77;;;35.27;;
23682;SDS011;24897;53.514;10.482;2023-03-31T14:06:32;44.40;;;34.27;;
23682;SDS011;24897;53.514;10.482;2023-03-31T14:09:12;43.70;;;35.23;;
23682;SDS011;24897;53.514;10.482;2023-03-31T14:12:22;43.23;;;34.60;;
23682;SDS011;24897;53.514;10.482;2023-03-31T14:15:21;41.20;;;36.27;;
23682;SDS011;24897;53.514;10.482;2023-03-31T14:18:05;41.87;;;34.43;;
23682;SDS011;24897;53.514;10.482;2023-03-31T14:36:12;40.40;;;34.67;;
23682;SDS011;24897;53.514;10.482;2023-03-31T14:39:13;39.73;;;33.93;;
23682;SDS011;24897;53.514;10.482;2023-03-31T14:42:22;41.13;;;35.13;;
23682;SDS011;24897;53.514;10.482;2023-03-31T14:45:15;39.13;;;33.90;;
23682;SDS011;24897;53.514;10.482;2023-03-31T14:48:11;39.77;;;33.50;;
23682;SDS011;24897;53.514;10.482;2023-03-31T14:51:00;39.20;;;33.10;;
23682;SDS011;24897;53.514;10.482;2023-03-31T14:53:45;37.50;;;32.30;;
23682;SDS011;24897;53.514;10.482;2023-03-31T14:56:34;41.70;;;34.03;;
23682;SDS011;24897;53.514;10.482;2023-03-31T14:59:23;39.30;;;32.37;;
23682;SDS011;24897;53.514;10.482;2023-03-31T15:02:13;38.73;;;34.50;;
23682;SDS011;24897;53.514;10.482;2023-03-31T15:05:25;36.03;;;31.63;;
23682;SDS011;24897;53.514;10.482;2023-03-31T15:08:14;35.97;;;31.73;;
23682;SDS011;24897;53.514;10.482;2023-03-31T15:11:03;38.60;;;33.47;;
23682;SDS011;24897;53.514;10.482;2023-03-31T15:13:51;37.47;;;32.90;;
23682;SDS011;24897;53.514;10.482;2023-03-31T15:16:37;39.40;;;32.63;;
23682;SDS011;24897;53.514;10.482;2023-03-31T15:19:28;36.17;;;31.87;;
23682;SDS011;24897;53.514;10.482;2023-03-31T15:22:16;35.90;;;31.70;;
23682;SDS011;24897;53.514;10.482;2023-03-31T15:25:04;36.07;;;32.20;;
23682;SDS011;24897;53.514;10.482;2023-03-31T15:27:49;36.73;;;31.60;;
23682;SDS011;24897;53.514;10.482;2023-03-31T15:30:39;35.83;;;31.60;;
23682;SDS011;24897;53.514;10.482;2023-03-31T15:33:27;37.43;;;32.70;;
23682;SDS011;24897;53.514;10.482;2023-03-31T15:36:19;36.53;;;32.63;;
23682;SDS011;24897;53.514;10.482;2023-03-31T15:39:04;34.53;;;30.53;;
23682;SDS011;24897;53.514;10.482;2023-03-31T15:41:48;36.13;;;32.33;;
23682;SDS011;24897;53.514;10.482;2023-03-31T15:47:22;35.37;;;31.67;;
23682;SDS011;24897;53.514;10.482;2023-03-31T15:50:11;35.73;;;31.83;;
23682;SDS011;24897;53.514;10.482;2023-03-31T15:52:58;34.57;;;30.87;;
23682;SDS011;24897;53.514;10.482;2023-03-31T15:55:43;35.67;;;32.07;;
23682;SDS011;24897;53.514;10.482;2023-03-31T15:58:52;35.10;;;31.30;;
23682;SDS011;24897;53.514;10.482;2023-03-31T16:01:42;35.17;;;31.47;;
23682;SDS011;24897;53.514;10.482;2023-03-31T16:04:28;35.60;;;31.57;;
23682;SDS011;24897;53.514;10.482;2023-03-31T16:10:18;36.93;;;32.90;;
23682;SDS011;24897;53.514;10.482;2023-03-31T16:13:06;43.63;;;35.50;;
23682;SDS011;24897;53.514;10.482;2023-03-31T16:15:53;40.50;;;34.00;;
23682;SDS011;24897;53.514;10.482;2023-03-31T16:18:39;37.33;;;31.63;;
23682;SDS011;24897;53.514;10.482;2023-03-31T16:21:27;36.20;;;32.03;;
23682;SDS011;24897;53.514;10.482;2023-03-31T16:24:19;36.20;;;31.90;;
23682;SDS011;24897;53.514;10.482;2023-03-31T16:27:04;34.63;;;30.93;;
23682;SDS011;24897;53.514;10.482;2023-03-31T16:29:50;35.47;;;31.67;;
23682;SDS011;24897;53.514;10.482;2023-03-31T16:35:47;35.80;;;31.53;;
23682;SDS011;24897;53.514;10.482;2023-03-31T16:38:36;35.47;;;30.40;;
23682;SDS011;24897;53.514;10.482;2023-03-31T16:41:21;36.23;;;30.67;;
23682;SDS011;24897;53.514;10.482;2023-03-31T16:44:09;33.97;;;30.23;;
23682;SDS011;24897;53.514;10.482;2023-03-31T16:46:53;35.53;;;31.63;;
23682;SDS011;24897;53.514;10.482;2023-03-31T16:49:37;38.37;;;32.10;;
23682;SDS011;24897;53.514;10.482;2023-03-31T16:52:21;35.50;;;31.57;;
23682;SDS011;24897;53.514;10.482;2023-03-31T16:55:09;36.80;;;31.30;;
23682;SDS011;24897;53.514;10.482;2023-03-31T16:57:53;35.90;;;31.60;;
23682;SDS011;24897;53.514;10.482;2023-03-31T17:00:37;38.70;;;32.80;;
23682;SDS011;24897;53.514;10.482;2023-03-31T17:03:23;37.33;;;32.33;;
23682;SDS011;24897;53.514;10.482;2023-03-31T17:06:09;35.80;;;31.53;;
23682;SDS011;24897;53.514;10.482;2023-03-31T17:08:55;37.07;;;32.47;;
23682;SDS011;24897;53.514;10.482;2023-03-31T17:11:40;36.70;;;32.70;;
23682;SDS011;24897;53.514;10.482;2023-03-31T17:14:24;35.67;;;31.47;;
23682;SDS011;24897;53.514;10.482;2023-03-31T17:17:09;38.80;;;34.60;;
23682;SDS011;24897;53.514;10.482;2023-03-31T17:19:54;37.07;;;32.70;;
23682;SDS011;24897;53.514;10.482;2023-03-31T17:22:38;36.10;;;31.43;;
23682;SDS011;24897;53.514;10.482;2023-03-31T17:25:25;37.03;;;31.70;;
23682;SDS011;24897;53.514;10.482;2023-03-31T17:28:09;38.13;;;34.13;;
23682;SDS011;24897;53.514;10.482;2023-03-31T17:30:54;36.67;;;31.10;;
23682;SDS011;24897;53.514;10.482;2023-03-31T17:33:39;37.53;;;33.03;;
23682;SDS011;24897;53.514;10.482;2023-03-31T17:36:24;37.10;;;33.10;;
23682;SDS011;24897;53.514;10.482;2023-03-31T17:39:09;36.83;;;32.83;;
23682;SDS011;24897;53.514;10.482;2023-03-31T17:41:53;38.20;;;33.43;;
23682;SDS011;24897;53.514;10.482;2023-03-31T17:44:38;38.00;;;33.63;;
23682;SDS011;24897;53.514;10.482;2023-03-31T17:47:23;36.13;;;31.73;;
23682;SDS011;24897;53.514;10.482;2023-03-31T17:50:08;38.90;;;34.80;;
23682;SDS011;24897;53.514;10.482;2023-03-31T17:52:55;37.03;;;32.93;;
23682;SDS011;24897;53.514;10.482;2023-03-31T17:55:41;38.00;;;33.90;;
23682;SDS011;24897;53.514;10.482;2023-03-31T17:58:25;38.13;;;34.00;;
23682;SDS011;24897;53.514;10.482;2023-03-31T18:01:11;37.97;;;33.13;;
23682;SDS011;24897;53.514;10.482;2023-03-31T18:03:56;37.07;;;32.30;;
23682;SDS011;24897;53.514;10.482;2023-03-31T18:06:41;41.63;;;34.80;;
23682;SDS011;24897;53.514;10.482;2023-03-31T18:09:27;42.47;;;36.30;;
23682;SDS011;24897;53.514;10.482;2023-03-31T18:12:12;42.37;;;35.57;;
23682;SDS011;24897;53.514;10.482;2023-03-31T18:14:56;41.90;;;36.10;;
23682;SDS011;24897;53.514;10.482;2023-03-31T18:17:41;41.00;;;36.37;;
23682;SDS011;24897;53.514;10.482;2023-03-31T18:20:26;44.40;;;37.27;;
23682;SDS011;24897;53.514;10.482;2023-03-31T18:23:11;45.90;;;38.90;;
23682;SDS011;24897;53.514;10.482;2023-03-31T18:25:55;46.20;;;40.00;;
23682;SDS011;24897;53.514;10.482;2023-03-31T18:28:39;46.30;;;39.00;;
23682;SDS011;24897;53.514;10.482;2023-03-31T18:31:24;44.33;;;38.87;;
23682;SDS011;24897;53.514;10.482;2023-03-31T18:34:09;44.63;;;38.87;;
23682;SDS011;24897;53.514;10.482;2023-03-31T18:36:55;46.70;;;39.33;;
23682;SDS011;24897;53.514;10.482;2023-03-31T18:39:40;43.57;;;38.43;;
23682;SDS011;24897;53.514;10.482;2023-03-31T18:42:25;45.67;;;39.27;;
23682;SDS011;24897;53.514;10.482;2023-03-31T18:45:09;44.27;;;39.37;;
23682;SDS011;24897;53.514;10.482;2023-03-31T18:47:55;45.90;;;38.43;;
23682;SDS011;24897;53.514;10.482;2023-03-31T18:50:40;48.40;;;40.20;;
23682;SDS011;24897;53.514;10.482;2023-03-31T18:53:25;48.40;;;41.30;;
23682;SDS011;24897;53.514;10.482;2023-03-31T18:56:09;50.50;;;41.50;;
23682;SDS011;24897;53.514;10.482;2023-03-31T18:58:53;44.67;;;38.67;;
23682;SDS011;24897;53.514;10.482;2023-03-31T19:01:37;46.23;;;39.23;;
23682;SDS011;24897;53.514;10.482;2023-03-31T19:04:23;44.87;;;38.50;;
23682;SDS011;24897;53.514;10.482;2023-03-31T19:07:07;43.20;;;35.57;;
23682;SDS011;24897;53.514;10.482;2023-03-31T19:09:51;44.60;;;38.77;;
23682;SDS011;24897;53.514;10.482;2023-03-31T19:12:35;45.17;;;39.23;;
23682;SDS011;24897;53.514;10.482;2023-03-31T19:15:20;44.27;;;39.47;;
23682;SDS011;24897;53.514;10.482;2023-03-31T19:18:05;43.83;;;38.90;;
23682;SDS011;24897;53.514;10.482;2023-03-31T19:20:49;44.50;;;38.17;;
23682;SDS011;24897;53.514;10.482;2023-03-31T19:23:34;42.83;;;37.80;;
23682;SDS011;24897;53.514;10.482;2023-03-31T19:26:19;46.20;;;37.83;;
23682;SDS011;24897;53.514;10.482;2023-03-31T19:29:03;42.00;;;36.07;;
23682;SDS011;24897;53.514;10.482;2023-03-31T19:31:48;42.17;;;36.67;;